sensor_id;sensor_type;location;lat;lon;timestamp;P1;durP1;ratioP1;P2;durP2;ratioP2
21239;SDS011;10778;48.962;9.018;2023-06-26T00:00:06;7.47;;;6.20;;
21239;SDS011;10778;48.962;9.018;2023-06-26T00:02:33;7.20;;;6.50;;
21239;SDS011;10778;48.962;9.018;2023-06-26T00:04:59;7.47;;;6.55;;
21239;SDS011;10778;48.962;9.018;2023-06-26T00:07:28;6.90;;;6.20;;
21239;SDS011;10778;48.962;9.018;2023-06-26T00:09:56;8.50;;;6.40;;
21239;SDS011;10778;48.962;9.018;2023-06-26T00:12:22;7.05;;;6.03;;
21239;SDS011;10778;48.962;9.018;2023-06-26T00:14:48;7.55;;;6.60;;
21239;SDS011;10778;48.962;9.018;2023-06-26T00:17:14;9.02;;;6.28;;
21239;SDS011;10778;48.962;9.018;2023-06-26T00:19:40;6.95;;;6.25;;
21239;SDS011;10778;48.962;9.018;2023-06-26T00:22:06;8.00;;;6.45;;
21239;SDS011;10778;48.962;9.018;2023-06-26T00:24:32;12.43;;;7.13;;
21239;SDS011;10778;48.962;9.018;2023-06-26T00:26:58;8.63;;;6.80;;
21239;SDS011;10778;48.962;9.018;2023-06-26T00:29:24;7.55;;;6.55;;
21239;SDS011;10778;48.962;9.018;2023-06-26T00:31:50;7.55;;;6.75;;
21239;SDS011;10778;48.962;9.018;2023-06-26T00:34:16;8.45;;;7.15;;
21239;SDS011;10778;48.962;9.018;2023-06-26T00:36:45;7.50;;;6.70;;
21239;SDS011;10778;48.962;9.018;2023-06-26T00:39:11;7.70;;;6.90;;
21239;SDS011;10778;48.962;9.018;2023-06-26T00:41:38;9.15;;;6.85;;
21239;SDS011;10778;48.962;9.018;2023-06-26T00:44:04;8.18;;;6.40;;
21239;SDS011;10778;48.962;9.018;2023-06-26T00:46:31;10.02;;;7.40;;
21239;SDS011;10778;48.962;9.018;2023-06-26T00:49:02;7.80;;;6.95;;
21239;SDS011;10778;48.962;9.018;2023-06-26T00:51:29;8.23;;;6.68;;
21239;SDS011;10778;48.962;9.018;2023-06-26T00:53:56;9.10;;;7.22;;
21239;SDS011;10778;48.962;9.018;2023-06-26T00:56:23;9.98;;;6.63;;
21239;SDS011;10778;48.962;9.018;2023-06-26T00:58:49;9.10;;;7.00;;
21239;SDS011;10778;48.962;9.018;2023-06-26T01:01:16;7.88;;;6.65;;
21239;SDS011;10778;48.962;9.018;2023-06-26T01:03:43;7.43;;;6.72;;
21239;SDS011;10778;48.962;9.018;2023-06-26T01:06:11;8.07;;;7.20;;
21239;SDS011;10778;48.962;9.018;2023-06-26T01:08:39;7.68;;;6.85;;
21239;SDS011;10778;48.962;9.018;2023-06-26T01:11:07;8.80;;;6.70;;
21239;SDS011;10778;48.962;9.018;2023-06-26T01:13:33;8.25;;;6.93;;
21239;SDS011;10778;48.962;9.018;2023-06-26T01:16:01;11.13;;;7.22;;
21239;SDS011;10778;48.962;9.018;2023-06-26T01:18:29;8.20;;;6.97;;
21239;SDS011;10778;48.962;9.018;2023-06-26T01:20:56;7.90;;;6.72;;
21239;SDS011;10778;48.962;9.018;2023-06-26T01:23:29;7.32;;;6.63;;
21239;SDS011;10778;48.962;9.018;2023-06-26T01:28:46;9.65;;;6.60;;
21239;SDS011;10778;48.962;9.018;2023-06-26T01:31:12;6.95;;;6.25;;
21239;SDS011;10778;48.962;9.018;2023-06-26T01:33:40;7.97;;;6.63;;
21239;SDS011;10778;48.962;9.018;2023-06-26T01:36:06;7.85;;;6.90;;
21239;SDS011;10778;48.962;9.018;2023-06-26T01:38:35;8.05;;;6.43;;
21239;SDS011;10778;48.962;9.018;2023-06-26T01:41:01;8.00;;;6.30;;
21239;SDS011;10778;48.962;9.018;2023-06-26T01:48:52;7.78;;;6.70;;
21239;SDS011;10778;48.962;9.018;2023-06-26T01:51:20;7.50;;;6.03;;
21239;SDS011;10778;48.962;9.018;2023-06-26T01:53:53;6.93;;;6.28;;
21239;SDS011;10778;48.962;9.018;2023-06-26T01:56:22;8.27;;;6.97;;
21239;SDS011;10778;48.962;9.018;2023-06-26T01:58:51;7.68;;;6.70;;
21239;SDS011;10778;48.962;9.018;2023-06-26T02:01:20;7.50;;;6.43;;
21239;SDS011;10778;48.962;9.018;2023-06-26T02:03:47;9.30;;;7.05;;
21239;SDS011;10778;48.962;9.018;2023-06-26T02:06:13;9.98;;;7.43;;
21239;SDS011;10778;48.962;9.018;2023-06-26T02:08:39;8.57;;;6.45;;
21239;SDS011;10778;48.962;9.018;2023-06-26T02:11:06;8.93;;;6.80;;
21239;SDS011;10778;48.962;9.018;2023-06-26T02:13:32;9.40;;;6.88;;
21239;SDS011;10778;48.962;9.018;2023-06-26T02:15:58;8.60;;;6.57;;
21239;SDS011;10778;48.962;9.018;2023-06-26T02:18:24;7.75;;;6.95;;
21239;SDS011;10778;48.962;9.018;2023-06-26T02:20:50;8.40;;;6.70;;
21239;SDS011;10778;48.962;9.018;2023-06-26T02:23:16;8.20;;;6.90;;
21239;SDS011;10778;48.962;9.018;2023-06-26T02:25:42;8.18;;;6.60;;
21239;SDS011;10778;48.962;9.018;2023-06-26T02:28:09;8.00;;;7.05;;
21239;SDS011;10778;48.962;9.018;2023-06-26T02:30:35;9.63;;;7.13;;
21239;SDS011;10778;48.962;9.018;2023-06-26T02:33:01;7.50;;;6.70;;
21239;SDS011;10778;48.962;9.018;2023-06-26T02:35:27;7.65;;;6.85;;
21239;SDS011;10778;48.962;9.018;2023-06-26T02:37:53;7.20;;;6.50;;
21239;SDS011;10778;48.962;9.018;2023-06-26T02:40:19;10.25;;;6.70;;
21239;SDS011;10778;48.962;9.018;2023-06-26T02:42:45;8.82;;;7.35;;
21239;SDS011;10778;48.962;9.018;2023-06-26T02:45:11;9.50;;;7.13;;
21239;SDS011;10778;48.962;9.018;2023-06-26T02:47:38;8.80;;;6.93;;
21239;SDS011;10778;48.962;9.018;2023-06-26T02:50:06;7.55;;;6.45;;
21239;SDS011;10778;48.962;9.018;2023-06-26T02:52:50;8.55;;;6.63;;
21239;SDS011;10778;48.962;9.018;2023-06-26T02:55:19;7.63;;;6.70;;
21239;SDS011;10778;48.962;9.018;2023-06-26T02:57:47;9.15;;;6.97;;
21239;SDS011;10778;48.962;9.018;2023-06-26T03:00:13;8.57;;;6.82;;
21239;SDS011;10778;48.962;9.018;2023-06-26T03:02:46;9.13;;;6.72;;
21239;SDS011;10778;48.962;9.018;2023-06-26T03:05:16;9.32;;;7.30;;
21239;SDS011;10778;48.962;9.018;2023-06-26T03:07:43;7.85;;;7.00;;
21239;SDS011;10778;48.962;9.018;2023-06-26T03:10:10;7.72;;;6.80;;
21239;SDS011;10778;48.962;9.018;2023-06-26T03:12:36;10.10;;;6.82;;
21239;SDS011;10778;48.962;9.018;2023-06-26T03:15:02;9.23;;;6.63;;
21239;SDS011;10778;48.962;9.018;2023-06-26T03:17:28;9.32;;;6.90;;
21239;SDS011;10778;48.962;9.018;2023-06-26T03:20:00;9.38;;;6.80;;
21239;SDS011;10778;48.962;9.018;2023-06-26T03:22:34;8.35;;;6.97;;
21239;SDS011;10778;48.962;9.018;2023-06-26T03:25:01;8.02;;;7.18;;
21239;SDS011;10778;48.962;9.018;2023-06-26T03:27:31;7.93;;;7.10;;
21239;SDS011;10778;48.962;9.018;2023-06-26T03:29:57;8.73;;;7.20;;
21239;SDS011;10778;48.962;9.018;2023-06-26T03:32:23;7.97;;;6.88;;
21239;SDS011;10778;48.962;9.018;2023-06-26T03:34:49;7.78;;;6.95;;
21239;SDS011;10778;48.962;9.018;2023-06-26T03:37:15;10.23;;;7.18;;
21239;SDS011;10778;48.962;9.018;2023-06-26T03:39:42;9.35;;;7.57;;
21239;SDS011;10778;48.962;9.018;2023-06-26T03:42:08;9.73;;;7.18;;
21239;SDS011;10778;48.962;9.018;2023-06-26T03:44:34;9.98;;;7.13;;
21239;SDS011;10778;48.962;9.018;2023-06-26T03:47:00;8.98;;;7.55;;
21239;SDS011;10778;48.962;9.018;2023-06-26T03:49:26;9.52;;;7.43;;
21239;SDS011;10778;48.962;9.018;2023-06-26T03:51:53;8.75;;;7.60;;
21239;SDS011;10778;48.962;9.018;2023-06-26T03:54:19;8.00;;;6.90;;
21239;SDS011;10778;48.962;9.018;2023-06-26T03:56:45;10.07;;;7.00;;
21239;SDS011;10778;48.962;9.018;2023-06-26T03:59:11;9.30;;;7.13;;
21239;SDS011;10778;48.962;9.018;2023-06-26T04:01:37;10.43;;;7.28;;
21239;SDS011;10778;48.962;9.018;2023-06-26T04:04:05;9.15;;;7.32;;
21239;SDS011;10778;48.962;9.018;2023-06-26T04:06:32;9.27;;;7.05;;
21239;SDS011;10778;48.962;9.018;2023-06-26T04:08:59;10.48;;;7.53;;
21239;SDS011;10778;48.962;9.018;2023-06-26T04:11:26;11.27;;;7.30;;
21239;SDS011;10778;48.962;9.018;2023-06-26T04:13:52;9.45;;;7.07;;
21239;SDS011;10778;48.962;9.018;2023-06-26T04:16:19;9.77;;;7.53;;
21239;SDS011;10778;48.962;9.018;2023-06-26T04:18:45;8.00;;;7.20;;
21239;SDS011;10778;48.962;9.018;2023-06-26T04:21:11;9.73;;;7.68;;
21239;SDS011;10778;48.962;9.018;2023-06-26T04:23:39;9.95;;;7.30;;
21239;SDS011;10778;48.962;9.018;2023-06-26T04:26:06;8.38;;;7.38;;
21239;SDS011;10778;48.962;9.018;2023-06-26T04:28:33;9.77;;;7.63;;
21239;SDS011;10778;48.962;9.018;2023-06-26T04:31:00;9.88;;;7.88;;
21239;SDS011;10778;48.962;9.018;2023-06-26T04:33:29;9.60;;;7.43;;
21239;SDS011;10778;48.962;9.018;2023-06-26T04:35:55;10.88;;;7.75;;
21239;SDS011;10778;48.962;9.018;2023-06-26T04:38:21;9.32;;;7.53;;
21239;SDS011;10778;48.962;9.018;2023-06-26T04:40:47;8.63;;;7.28;;
21239;SDS011;10778;48.962;9.018;2023-06-26T04:43:14;8.75;;;7.15;;
21239;SDS011;10778;48.962;9.018;2023-06-26T04:45:40;10.13;;;7.43;;
21239;SDS011;10778;48.962;9.018;2023-06-26T04:48:06;9.32;;;7.10;;
21239;SDS011;10778;48.962;9.018;2023-06-26T04:50:32;9.93;;;7.55;;
21239;SDS011;10778;48.962;9.018;2023-06-26T04:52:59;10.93;;;7.40;;
21239;SDS011;10778;48.962;9.018;2023-06-26T04:55:25;11.07;;;7.55;;
21239;SDS011;10778;48.962;9.018;2023-06-26T04:57:51;10.40;;;7.65;;
21239;SDS011;10778;48.962;9.018;2023-06-26T05:00:17;10.20;;;7.88;;
21239;SDS011;10778;48.962;9.018;2023-06-26T05:02:44;9.27;;;7.80;;
21239;SDS011;10778;48.962;9.018;2023-06-26T05:05:10;9.50;;;7.72;;
21239;SDS011;10778;48.962;9.018;2023-06-26T05:07:37;8.65;;;7.72;;
21239;SDS011;10778;48.962;9.018;2023-06-26T05:10:03;11.50;;;8.05;;
21239;SDS011;10778;48.962;9.018;2023-06-26T05:12:30;12.10;;;7.75;;
21239;SDS011;10778;48.962;9.018;2023-06-26T05:14:56;9.73;;;7.60;;
21239;SDS011;10778;48.962;9.018;2023-06-26T05:17:22;11.27;;;8.50;;
21239;SDS011;10778;48.962;9.018;2023-06-26T05:19:48;11.70;;;8.52;;
21239;SDS011;10778;48.962;9.018;2023-06-26T05:22:14;8.93;;;7.20;;
21239;SDS011;10778;48.962;9.018;2023-06-26T05:24:42;9.98;;;7.65;;
21239;SDS011;10778;48.962;9.018;2023-06-26T05:27:12;11.75;;;8.25;;
21239;SDS011;10778;48.962;9.018;2023-06-26T05:29:45;10.55;;;7.95;;
21239;SDS011;10778;48.962;9.018;2023-06-26T05:32:11;9.57;;;8.07;;
21239;SDS011;10778;48.962;9.018;2023-06-26T05:34:41;9.40;;;8.02;;
21239;SDS011;10778;48.962;9.018;2023-06-26T05:37:07;10.80;;;8.82;;
21239;SDS011;10778;48.962;9.018;2023-06-26T05:39:34;9.80;;;8.80;;
21239;SDS011;10778;48.962;9.018;2023-06-26T05:42:00;10.82;;;9.27;;
21239;SDS011;10778;48.962;9.018;2023-06-26T05:44:26;14.18;;;8.88;;
21239;SDS011;10778;48.962;9.018;2023-06-26T05:46:52;12.02;;;9.43;;
21239;SDS011;10778;48.962;9.018;2023-06-26T05:49:18;10.73;;;9.15;;
21239;SDS011;10778;48.962;9.018;2023-06-26T05:51:44;11.23;;;9.70;;
21239;SDS011;10778;48.962;9.018;2023-06-26T05:54:11;11.23;;;9.00;;
21239;SDS011;10778;48.962;9.018;2023-06-26T05:56:38;13.75;;;9.52;;
21239;SDS011;10778;48.962;9.018;2023-06-26T05:59:05;11.38;;;8.88;;
21239;SDS011;10778;48.962;9.018;2023-06-26T06:01:31;11.90;;;9.30;;
21239;SDS011;10778;48.962;9.018;2023-06-26T06:03:59;11.07;;;9.48;;
21239;SDS011;10778;48.962;9.018;2023-06-26T06:06:25;12.85;;;9.75;;
21239;SDS011;10778;48.962;9.018;2023-06-26T06:08:51;11.38;;;9.38;;
21239;SDS011;10778;48.962;9.018;2023-06-26T06:11:17;11.23;;;9.20;;
21239;SDS011;10778;48.962;9.018;2023-06-26T06:17:31;10.93;;;9.07;;
21239;SDS011;10778;48.962;9.018;2023-06-26T06:19:57;10.05;;;9.05;;
21239;SDS011;10778;48.962;9.018;2023-06-26T06:22:23;10.85;;;8.85;;
21239;SDS011;10778;48.962;9.018;2023-06-26T06:24:49;10.98;;;8.68;;
21239;SDS011;10778;48.962;9.018;2023-06-26T06:27:16;9.65;;;8.35;;
21239;SDS011;10778;48.962;9.018;2023-06-26T06:29:42;11.20;;;9.38;;
21239;SDS011;10778;48.962;9.018;2023-06-26T06:32:09;10.93;;;8.93;;
21239;SDS011;10778;48.962;9.018;2023-06-26T06:34:35;11.65;;;9.50;;
21239;SDS011;10778;48.962;9.018;2023-06-26T06:37:01;11.65;;;8.65;;
21239;SDS011;10778;48.962;9.018;2023-06-26T06:39:28;10.80;;;9.32;;
21239;SDS011;10778;48.962;9.018;2023-06-26T06:41:54;10.63;;;9.30;;
21239;SDS011;10778;48.962;9.018;2023-06-26T06:44:20;11.18;;;8.93;;
21239;SDS011;10778;48.962;9.018;2023-06-26T06:46:47;10.27;;;8.85;;
21239;SDS011;10778;48.962;9.018;2023-06-26T06:49:14;10.27;;;8.82;;
21239;SDS011;10778;48.962;9.018;2023-06-26T06:51:40;10.82;;;8.65;;
21239;SDS011;10778;48.962;9.018;2023-06-26T06:54:06;11.27;;;8.57;;
21239;SDS011;10778;48.962;9.018;2023-06-26T06:56:32;10.00;;;9.02;;
21239;SDS011;10778;48.962;9.018;2023-06-26T06:58:58;10.88;;;8.90;;
21239;SDS011;10778;48.962;9.018;2023-06-26T07:01:24;10.30;;;9.20;;
21239;SDS011;10778;48.962;9.018;2023-06-26T07:03:50;10.05;;;8.98;;
21239;SDS011;10778;48.962;9.018;2023-06-26T07:06:16;9.80;;;8.77;;
21239;SDS011;10778;48.962;9.018;2023-06-26T07:08:42;8.93;;;8.02;;
21239;SDS011;10778;48.962;9.018;2023-06-26T07:11:08;10.02;;;8.45;;
21239;SDS011;10778;48.962;9.018;2023-06-26T07:13:34;11.18;;;8.45;;
21239;SDS011;10778;48.962;9.018;2023-06-26T07:16:01;9.15;;;8.10;;
21239;SDS011;10778;48.962;9.018;2023-06-26T07:18:27;10.70;;;8.50;;
21239;SDS011;10778;48.962;9.018;2023-06-26T07:20:53;8.70;;;7.78;;
21239;SDS011;10778;48.962;9.018;2023-06-26T07:23:19;10.48;;;8.43;;
21239;SDS011;10778;48.962;9.018;2023-06-26T07:25:45;9.45;;;7.80;;
21239;SDS011;10778;48.962;9.018;2023-06-26T07:28:11;8.75;;;7.55;;
21239;SDS011;10778;48.962;9.018;2023-06-26T07:30:38;9.52;;;8.00;;
21239;SDS011;10778;48.962;9.018;2023-06-26T07:33:04;8.75;;;7.95;;
21239;SDS011;10778;48.962;9.018;2023-06-26T07:35:30;9.18;;;8.27;;
21239;SDS011;10778;48.962;9.018;2023-06-26T07:37:56;8.95;;;8.05;;
21239;SDS011;10778;48.962;9.018;2023-06-26T07:40:23;8.27;;;7.47;;
21239;SDS011;10778;48.962;9.018;2023-06-26T07:42:49;8.85;;;7.95;;
21239;SDS011;10778;48.962;9.018;2023-06-26T07:45:15;9.98;;;7.88;;
21239;SDS011;10778;48.962;9.018;2023-06-26T07:47:42;9.68;;;7.97;;
21239;SDS011;10778;48.962;9.018;2023-06-26T07:50:08;10.32;;;8.00;;
21239;SDS011;10778;48.962;9.018;2023-06-26T07:52:34;8.93;;;8.02;;
21239;SDS011;10778;48.962;9.018;2023-06-26T07:55:00;8.02;;;7.22;;
21239;SDS011;10778;48.962;9.018;2023-06-26T07:57:27;7.75;;;7.05;;
21239;SDS011;10778;48.962;9.018;2023-06-26T07:59:53;8.10;;;7.28;;
21239;SDS011;10778;48.962;9.018;2023-06-26T08:02:19;7.57;;;6.88;;
21239;SDS011;10778;48.962;9.018;2023-06-26T08:04:45;8.05;;;7.25;;
21239;SDS011;10778;48.962;9.018;2023-06-26T08:07:11;7.75;;;6.95;;
21239;SDS011;10778;48.962;9.018;2023-06-26T08:09:39;7.90;;;7.20;;
21239;SDS011;10778;48.962;9.018;2023-06-26T08:12:05;9.38;;;6.85;;
21239;SDS011;10778;48.962;9.018;2023-06-26T08:14:31;10.57;;;6.72;;
21239;SDS011;10778;48.962;9.018;2023-06-26T08:16:57;7.75;;;6.50;;
21239;SDS011;10778;48.962;9.018;2023-06-26T08:19:25;8.23;;;6.68;;
21239;SDS011;10778;48.962;9.018;2023-06-26T08:21:51;8.43;;;6.47;;
21239;SDS011;10778;48.962;9.018;2023-06-26T08:24:17;7.15;;;6.45;;
21239;SDS011;10778;48.962;9.018;2023-06-26T08:26:45;7.30;;;6.55;;
21239;SDS011;10778;48.962;9.018;2023-06-26T08:29:12;8.30;;;6.43;;
21239;SDS011;10778;48.962;9.018;2023-06-26T08:31:39;8.82;;;6.30;;
21239;SDS011;10778;48.962;9.018;2023-06-26T08:34:06;9.15;;;6.50;;
21239;SDS011;10778;48.962;9.018;2023-06-26T08:36:33;7.82;;;6.32;;
21239;SDS011;10778;48.962;9.018;2023-06-26T08:38:59;11.23;;;5.90;;
21239;SDS011;10778;48.962;9.018;2023-06-26T08:41:25;6.25;;;5.65;;
21239;SDS011;10778;48.962;9.018;2023-06-26T08:43:52;7.15;;;5.38;;
21239;SDS011;10778;48.962;9.018;2023-06-26T08:46:18;7.47;;;5.75;;
21239;SDS011;10778;48.962;9.018;2023-06-26T08:48:48;8.57;;;5.40;;
21239;SDS011;10778;48.962;9.018;2023-06-26T08:51:18;7.32;;;5.57;;
21239;SDS011;10778;48.962;9.018;2023-06-26T08:53:52;6.28;;;5.10;;
21239;SDS011;10778;48.962;9.018;2023-06-26T08:56:22;5.97;;;5.38;;
21239;SDS011;10778;48.962;9.018;2023-06-26T08:58:49;5.97;;;5.38;;
21239;SDS011;10778;48.962;9.018;2023-06-26T09:01:16;5.68;;;4.85;;
21239;SDS011;10778;48.962;9.018;2023-06-26T09:03:43;6.85;;;5.50;;
21239;SDS011;10778;48.962;9.018;2023-06-26T09:06:09;7.43;;;5.53;;
21239;SDS011;10778;48.962;9.018;2023-06-26T09:08:36;6.20;;;5.60;;
21239;SDS011;10778;48.962;9.018;2023-06-26T09:11:02;5.95;;;5.35;;
21239;SDS011;10778;48.962;9.018;2023-06-26T09:13:28;7.82;;;5.28;;
21239;SDS011;10778;48.962;9.018;2023-06-26T09:15:56;6.47;;;5.65;;
21239;SDS011;10778;48.962;9.018;2023-06-26T09:18:22;7.22;;;5.50;;
21239;SDS011;10778;48.962;9.018;2023-06-26T09:20:48;8.35;;;5.60;;
21239;SDS011;10778;48.962;9.018;2023-06-26T09:23:15;6.15;;;5.50;;
21239;SDS011;10778;48.962;9.018;2023-06-26T09:25:43;6.88;;;5.43;;
21239;SDS011;10778;48.962;9.018;2023-06-26T09:28:10;7.97;;;5.22;;
21239;SDS011;10778;48.962;9.018;2023-06-26T09:30:36;8.73;;;6.10;;
21239;SDS011;10778;48.962;9.018;2023-06-26T09:33:15;6.13;;;5.53;;
21239;SDS011;10778;48.962;9.018;2023-06-26T09:35:45;6.25;;;5.75;;
21239;SDS011;10778;48.962;9.018;2023-06-26T09:38:12;6.95;;;6.10;;
21239;SDS011;10778;48.962;9.018;2023-06-26T09:40:39;7.78;;;6.10;;
21239;SDS011;10778;48.962;9.018;2023-06-26T09:43:06;7.40;;;6.25;;
21239;SDS011;10778;48.962;9.018;2023-06-26T09:45:33;7.68;;;5.90;;
21239;SDS011;10778;48.962;9.018;2023-06-26T09:48:05;9.10;;;6.10;;
21239;SDS011;10778;48.962;9.018;2023-06-26T09:50:34;8.35;;;6.30;;
21239;SDS011;10778;48.962;9.018;2023-06-26T09:53:07;9.70;;;6.13;;
21239;SDS011;10778;48.962;9.018;2023-06-26T09:55:35;7.85;;;6.47;;
21239;SDS011;10778;48.962;9.018;2023-06-26T09:58:05;8.35;;;5.80;;
21239;SDS011;10778;48.962;9.018;2023-06-26T10:00:32;7.63;;;6.15;;
21239;SDS011;10778;48.962;9.018;2023-06-26T10:03:01;7.63;;;6.32;;
21239;SDS011;10778;48.962;9.018;2023-06-26T10:05:28;6.93;;;6.22;;
21239;SDS011;10778;48.962;9.018;2023-06-26T10:07:54;10.90;;;6.00;;
21239;SDS011;10778;48.962;9.018;2023-06-26T10:10:22;6.30;;;5.68;;
21239;SDS011;10778;48.962;9.018;2023-06-26T10:12:51;10.63;;;6.18;;
21239;SDS011;10778;48.962;9.018;2023-06-26T10:15:23;10.30;;;5.90;;
21239;SDS011;10778;48.962;9.018;2023-06-26T10:17:51;9.80;;;6.35;;
21239;SDS011;10778;48.962;9.018;2023-06-26T10:20:21;10.20;;;6.50;;
21239;SDS011;10778;48.962;9.018;2023-06-26T10:22:47;8.98;;;6.70;;
21239;SDS011;10778;48.962;9.018;2023-06-26T10:25:16;9.27;;;6.75;;
21239;SDS011;10778;48.962;9.018;2023-06-26T10:27:47;8.48;;;6.57;;
21239;SDS011;10778;48.962;9.018;2023-06-26T10:30:20;8.00;;;6.65;;
21239;SDS011;10778;48.962;9.018;2023-06-26T10:32:51;8.35;;;6.78;;
21239;SDS011;10778;48.962;9.018;2023-06-26T10:35:17;7.72;;;6.82;;
21239;SDS011;10778;48.962;9.018;2023-06-26T10:37:45;7.50;;;6.68;;
21239;SDS011;10778;48.962;9.018;2023-06-26T10:40:12;11.10;;;6.55;;
21239;SDS011;10778;48.962;9.018;2023-06-26T10:42:40;10.10;;;6.95;;
21239;SDS011;10778;48.962;9.018;2023-06-26T10:45:09;8.20;;;6.90;;
21239;SDS011;10778;48.962;9.018;2023-06-26T10:47:39;9.43;;;7.10;;
21239;SDS011;10778;48.962;9.018;2023-06-26T10:50:17;10.55;;;6.75;;
21239;SDS011;10778;48.962;9.018;2023-06-26T10:52:46;9.40;;;6.90;;
21239;SDS011;10778;48.962;9.018;2023-06-26T10:55:39;10.50;;;6.75;;
21239;SDS011;10778;48.962;9.018;2023-06-26T10:58:26;10.68;;;6.85;;
21239;SDS011;10778;48.962;9.018;2023-06-26T11:04:01;7.60;;;6.50;;
21239;SDS011;10778;48.962;9.018;2023-06-26T11:06:30;7.95;;;6.38;;
21239;SDS011;10778;48.962;9.018;2023-06-26T11:09:05;9.38;;;6.75;;
21239;SDS011;10778;48.962;9.018;2023-06-26T11:14:18;7.32;;;6.55;;
21239;SDS011;10778;48.962;9.018;2023-06-26T11:16:45;7.40;;;6.50;;
21239;SDS011;10778;48.962;9.018;2023-06-26T11:19:12;8.05;;;7.03;;
21239;SDS011;10778;48.962;9.018;2023-06-26T11:21:40;9.45;;;6.32;;
21239;SDS011;10778;48.962;9.018;2023-06-26T11:24:06;8.27;;;6.57;;
21239;SDS011;10778;48.962;9.018;2023-06-26T11:26:40;6.85;;;6.15;;
21239;SDS011;10778;48.962;9.018;2023-06-26T11:29:07;7.88;;;6.43;;
21239;SDS011;10778;48.962;9.018;2023-06-26T11:31:34;10.52;;;6.88;;
21239;SDS011;10778;48.962;9.018;2023-06-26T11:34:03;10.50;;;6.88;;
21239;SDS011;10778;48.962;9.018;2023-06-26T11:36:34;8.35;;;6.50;;
21239;SDS011;10778;48.962;9.018;2023-06-26T11:39:05;7.30;;;6.60;;
21239;SDS011;10778;48.962;9.018;2023-06-26T11:41:33;8.18;;;6.78;;
21239;SDS011;10778;48.962;9.018;2023-06-26T11:44:04;8.77;;;7.05;;
21239;SDS011;10778;48.962;9.018;2023-06-26T11:46:32;9.35;;;7.10;;
21239;SDS011;10778;48.962;9.018;2023-06-26T11:49:00;12.05;;;7.25;;
21239;SDS011;10778;48.962;9.018;2023-06-26T11:51:28;8.27;;;6.63;;
21239;SDS011;10778;48.962;9.018;2023-06-26T11:53:55;8.38;;;6.88;;
21239;SDS011;10778;48.962;9.018;2023-06-26T11:56:21;8.20;;;6.70;;
21239;SDS011;10778;48.962;9.018;2023-06-26T11:58:55;10.23;;;7.05;;
21239;SDS011;10778;48.962;9.018;2023-06-26T12:01:27;8.65;;;7.68;;
21239;SDS011;10778;48.962;9.018;2023-06-26T12:04:01;8.25;;;6.97;;
21239;SDS011;10778;48.962;9.018;2023-06-26T12:06:29;9.02;;;6.90;;
21239;SDS011;10778;48.962;9.018;2023-06-26T12:08:58;8.93;;;7.03;;
21239;SDS011;10778;48.962;9.018;2023-06-26T12:11:26;8.57;;;7.40;;
21239;SDS011;10778;48.962;9.018;2023-06-26T12:13:55;8.05;;;7.13;;
21239;SDS011;10778;48.962;9.018;2023-06-26T12:16:22;7.88;;;6.93;;
21239;SDS011;10778;48.962;9.018;2023-06-26T12:18:48;11.18;;;7.43;;
21239;SDS011;10778;48.962;9.018;2023-06-26T12:24:13;8.38;;;6.82;;
21239;SDS011;10778;48.962;9.018;2023-06-26T12:26:43;7.35;;;6.45;;
21239;SDS011;10778;48.962;9.018;2023-06-26T12:29:15;8.32;;;6.88;;
21239;SDS011;10778;48.962;9.018;2023-06-26T12:31:52;8.80;;;7.00;;
21239;SDS011;10778;48.962;9.018;2023-06-26T12:34:19;8.68;;;6.30;;
21239;SDS011;10778;48.962;9.018;2023-06-26T12:36:50;10.30;;;6.80;;
21239;SDS011;10778;48.962;9.018;2023-06-26T12:39:18;11.27;;;6.95;;
21239;SDS011;10778;48.962;9.018;2023-06-26T12:41:51;9.20;;;6.85;;
21239;SDS011;10778;48.962;9.018;2023-06-26T12:44:20;8.90;;;6.80;;
21239;SDS011;10778;48.962;9.018;2023-06-26T12:47:03;7.57;;;6.05;;
21239;SDS011;10778;48.962;9.018;2023-06-26T12:49:33;7.90;;;6.53;;
21239;SDS011;10778;48.962;9.018;2023-06-26T12:52:01;6.97;;;6.28;;
21239;SDS011;10778;48.962;9.018;2023-06-26T12:54:28;8.48;;;6.00;;
21239;SDS011;10778;48.962;9.018;2023-06-26T12:56:55;8.13;;;6.10;;
21239;SDS011;10778;48.962;9.018;2023-06-26T12:59:21;9.88;;;5.90;;
21239;SDS011;10778;48.962;9.018;2023-06-26T13:01:47;9.35;;;5.75;;
21239;SDS011;10778;48.962;9.018;2023-06-26T13:04:14;7.80;;;5.65;;
21239;SDS011;10778;48.962;9.018;2023-06-26T13:06:40;8.13;;;5.53;;
21239;SDS011;10778;48.962;9.018;2023-06-26T13:09:06;10.73;;;5.53;;
21239;SDS011;10778;48.962;9.018;2023-06-26T13:11:33;7.05;;;5.60;;
21239;SDS011;10778;48.962;9.018;2023-06-26T13:14:01;6.82;;;5.18;;
21239;SDS011;10778;48.962;9.018;2023-06-26T13:16:27;6.15;;;4.80;;
21239;SDS011;10778;48.962;9.018;2023-06-26T13:18:53;6.65;;;5.10;;
21239;SDS011;10778;48.962;9.018;2023-06-26T13:21:19;7.03;;;5.10;;
21239;SDS011;10778;48.962;9.018;2023-06-26T13:23:45;6.68;;;5.00;;
21239;SDS011;10778;48.962;9.018;2023-06-26T13:26:11;6.75;;;4.78;;
21239;SDS011;10778;48.962;9.018;2023-06-26T13:28:37;6.35;;;4.43;;
21239;SDS011;10778;48.962;9.018;2023-06-26T13:31:04;7.35;;;4.25;;
21239;SDS011;10778;48.962;9.018;2023-06-26T13:33:30;6.80;;;4.38;;
21239;SDS011;10778;48.962;9.018;2023-06-26T13:35:56;6.30;;;4.47;;
21239;SDS011;10778;48.962;9.018;2023-06-26T13:38:24;7.63;;;3.97;;
21239;SDS011;10778;48.962;9.018;2023-06-26T13:40:53;5.95;;;3.90;;
21239;SDS011;10778;48.962;9.018;2023-06-26T13:43:21;9.45;;;4.20;;
21239;SDS011;10778;48.962;9.018;2023-06-26T13:45:47;6.47;;;4.13;;
21239;SDS011;10778;48.962;9.018;2023-06-26T13:48:16;7.10;;;4.10;;
21239;SDS011;10778;48.962;9.018;2023-06-26T13:50:43;5.18;;;4.72;;
21239;SDS011;10778;48.962;9.018;2023-06-26T13:53:09;6.13;;;5.03;;
21239;SDS011;10778;48.962;9.018;2023-06-26T13:55:35;8.38;;;5.03;;
21239;SDS011;10778;48.962;9.018;2023-06-26T13:58:01;8.93;;;4.90;;
21239;SDS011;10778;48.962;9.018;2023-06-26T14:00:31;5.47;;;4.20;;
21239;SDS011;10778;48.962;9.018;2023-06-26T14:03:02;5.55;;;3.97;;
21239;SDS011;10778;48.962;9.018;2023-06-26T14:05:32;8.75;;;4.28;;
21239;SDS011;10778;48.962;9.018;2023-06-26T14:08:02;6.68;;;3.83;;
21239;SDS011;10778;48.962;9.018;2023-06-26T14:10:30;6.68;;;3.50;;
21239;SDS011;10778;48.962;9.018;2023-06-26T14:12:58;7.35;;;4.00;;
21239;SDS011;10778;48.962;9.018;2023-06-26T14:15:25;7.65;;;3.95;;
21239;SDS011;10778;48.962;9.018;2023-06-26T14:17:51;7.78;;;4.00;;
21239;SDS011;10778;48.962;9.018;2023-06-26T14:20:18;6.25;;;4.28;;
21239;SDS011;10778;48.962;9.018;2023-06-26T14:22:46;6.38;;;4.10;;
21239;SDS011;10778;48.962;9.018;2023-06-26T14:25:12;6.90;;;3.90;;
21239;SDS011;10778;48.962;9.018;2023-06-26T14:27:39;6.82;;;4.00;;
21239;SDS011;10778;48.962;9.018;2023-06-26T14:30:06;6.38;;;4.18;;
21239;SDS011;10778;48.962;9.018;2023-06-26T14:32:35;5.85;;;3.70;;
21239;SDS011;10778;48.962;9.018;2023-06-26T14:35:02;5.85;;;3.97;;
21239;SDS011;10778;48.962;9.018;2023-06-26T14:37:29;6.95;;;3.75;;
21239;SDS011;10778;48.962;9.018;2023-06-26T14:39:56;11.75;;;3.65;;
21239;SDS011;10778;48.962;9.018;2023-06-26T14:42:23;9.27;;;4.07;;
21239;SDS011;10778;48.962;9.018;2023-06-26T14:44:49;5.72;;;4.00;;
21239;SDS011;10778;48.962;9.018;2023-06-26T14:47:16;8.05;;;4.20;;
21239;SDS011;10778;48.962;9.018;2023-06-26T14:49:43;6.68;;;4.72;;
21239;SDS011;10778;48.962;9.018;2023-06-26T14:52:09;5.93;;;4.95;;
21239;SDS011;10778;48.962;9.018;2023-06-26T14:54:35;6.45;;;4.90;;
21239;SDS011;10778;48.962;9.018;2023-06-26T14:57:08;10.25;;;5.43;;
21239;SDS011;10778;48.962;9.018;2023-06-26T14:59:34;7.88;;;5.47;;
21239;SDS011;10778;48.962;9.018;2023-06-26T15:02:00;7.68;;;5.30;;
21239;SDS011;10778;48.962;9.018;2023-06-26T15:04:26;7.55;;;5.75;;
21239;SDS011;10778;48.962;9.018;2023-06-26T15:06:52;8.57;;;6.35;;